Pagina principale
METAR-TAF:

METAR-TAF

Aeroporti :

Annecy, Francia

latitudine: 45-55-45N, longitudine: 006-05-56E, altezza: 463 m

Osservazione

Il bollettino è stato emesso 19 minuti fa, alle 02:30 UTC
Vento 3 kt da nord
Temperature 7°C
Umidità 93%
Pressione 1019 hPa
Visibilità: 9000 m

METAR: LFLP 190230Z AUTO 36003KT 9000 NSC 07/06 Q1019 NOSIG

Ora: 04:49 (02:49 UTC)

Previsione

Il bollettino è stato emesso 49 minuti fa, alle 02:00 UTC
Previsione valida dal 19 alle 03 UTC al 20 alle 03 UTC
Vento 5 kt da direzioni variabili
Visibilità 10 km o più
nessuna nube inferiore a 1500 m e nessun cumulonembo
Temporaneamente
dal 19 alle 03 UTC al 19 alle 06 UTC
Visibilità: 5000 m

TAF: LFLP 190200Z 1903/2003 VRB05KT CAVOK TEMPO 1903/1906 5000 NSC

Osservazioni e previsioni meteorologiche di più di 4000 aeroporti (messaggi METAR e TAF).

Le stazioni disponibili sono rappresentate dai dischi gialli e rossi sulla carta.

Puntare il mouse per vedere il nome della stazione.

Clicca sopra per visualizzare le osservazioni e previsioni meteorologiche.

Per cambiare la mappa : fare clic sui pulsanti verdi con una croce nera per ingrandire, il pulsante verde con un trattino per diminuire, o sulla freccia verde per le mappe adiacenti.


METAR-TAF: